Time;durP1;ratioP1;P1;durP2;ratioP2;P2;SDS_P1;SDS_P2;PMS_P1;PMS_P2;Temp;Humidity;BMP_temperature;BMP_pressure;BME280_temperature;BME280_humidity;BME280_pressure;Samples;Min_cycle;Max_cycle;Signal;HPM_P1;HPM_P2
2021/05/25 00:02:10;;;;;;;2.90;1.33;;;14.70;99.90;;;;;;5092643;28;20028;-58
2021/05/25 00:04:35;;;;;;;6.05;1.23;;;14.70;99.90;;;;;;5092878;28;20023;-59
2021/05/25 00:07:01;;;;;;;2.00;1.40;;;14.70;99.90;;;;;;5092539;28;20024;-59
2021/05/25 00:09:26;;;;;;;4.45;1.45;;;14.70;99.90;;;;;;5083597;28;20083;-59
2021/05/25 00:11:52;;;;;;;2.97;1.25;;;14.70;99.90;;;;;;5071589;28;20035;-60
2021/05/25 00:14:20;;;;;;;1.42;0.90;;;14.60;99.90;;;;;;5072180;28;20031;-58
2021/05/25 00:16:47;;;;;;;1.98;1.30;;;14.60;99.90;;;;;;5072535;28;20417;-59
2021/05/25 00:19:13;;;;;;;2.78;1.25;;;14.60;99.90;;;;;;5072386;28;20039;-59
2021/05/25 00:21:39;;;;;;;3.63;1.50;;;14.70;99.90;;;;;;5072395;28;20100;-59
2021/05/25 00:24:04;;;;;;;1.98;1.40;;;14.70;99.90;;;;;;5072443;28;20531;-57
2021/05/25 00:26:30;;;;;;;1.33;1.20;;;14.70;99.90;;;;;;5071442;28;20063;-59
2021/05/25 00:28:56;;;;;;;1.23;1.00;;;14.70;99.90;;;;;;5070998;28;20028;-58
2021/05/25 00:31:21;;;;;;;3.00;1.27;;;14.70;99.90;;;;;;5072206;28;20044;-60
2021/05/25 00:33:46;;;;;;;6.85;1.40;;;14.60;99.90;;;;;;5071085;28;20048;-59
2021/05/25 00:36:12;;;;;;;2.50;1.00;;;14.70;99.90;;;;;;5072226;28;20047;-58
2021/05/25 00:38:38;;;;;;;3.08;1.20;;;14.60;99.90;;;;;;5072229;28;20399;-59
2021/05/25 00:41:04;;;;;;;2.10;0.95;;;14.60;99.90;;;;;;5071184;28;20021;-59
2021/05/25 00:43:30;;;;;;;1.83;1.13;;;14.60;99.90;;;;;;5072155;28;20323;-59
2021/05/25 00:45:55;;;;;;;2.30;0.90;;;14.50;99.90;;;;;;5072197;28;20021;-60
2021/05/25 00:48:21;;;;;;;1.42;1.20;;;14.50;99.90;;;;;;5072053;28;20035;-59
2021/05/25 00:50:47;;;;;;;2.88;0.95;;;14.50;99.90;;;;;;5072787;28;20021;-60
2021/05/25 00:53:13;;;;;;;2.40;0.77;;;14.50;99.90;;;;;;5092185;28;20347;-59
2021/05/25 00:55:40;;;;;;;1.27;0.98;;;14.40;99.90;;;;;;5091484;28;20398;-59
2021/05/25 00:58:08;;;;;;;2.45;0.70;;;14.40;99.90;;;;;;5094966;28;20107;-58
2021/05/25 01:00:39;;;;;;;1.10;0.70;;;14.30;99.90;;;;;;5096218;28;20112;-59
2021/05/25 01:03:05;;;;;;;1.70;1.00;;;14.30;99.90;;;;;;5096021;28;20036;-58
2021/05/25 01:05:32;;;;;;;1.55;0.70;;;14.30;99.90;;;;;;5096170;28;20024;-59
2021/05/25 01:07:58;;;;;;;2.85;0.80;;;14.20;99.90;;;;;;5095884;28;20486;-59
2021/05/25 01:10:38;;;;;;;1.70;0.73;;;14.20;99.90;;;;;;5077393;28;20673;-59
2021/05/25 01:13:08;;;;;;;1.05;0.80;;;14.10;99.90;;;;;;5075597;28;20025;-60
2021/05/25 01:15:34;;;;;;;1.88;1.15;;;14.10;99.90;;;;;;5075696;28;20056;-59
2021/05/25 01:18:02;;;;;;;21.52;1.30;;;14.10;99.90;;;;;;5075493;28;20060;-59
2021/05/25 01:20:33;;;;;;;3.45;0.80;;;14.00;99.90;;;;;;5075326;28;20032;-59
2021/05/25 01:22:59;;;;;;;1.10;0.82;;;14.00;99.90;;;;;;5075171;28;20476;-59
2021/05/25 01:25:25;;;;;;;1.33;0.80;;;14.00;99.90;;;;;;5074886;28;20035;-59
2021/05/25 01:27:55;;;;;;;1.38;0.82;;;14.00;99.90;;;;;;5075221;28;20027;-60
2021/05/25 01:30:41;;;;;;;1.33;0.60;;;14.00;99.90;;;;;;5075362;28;20129;-60
2021/05/25 01:33:08;;;;;;;1.75;0.80;;;14.00;99.90;;;;;;5075298;28;20027;-60
2021/05/25 01:35:35;;;;;;;1.05;0.68;;;14.00;99.90;;;;;;5075167;28;20074;-60
2021/05/25 01:38:03;;;;;;;2.67;0.70;;;14.00;99.90;;;;;;5075261;28;20024;-59
2021/05/25 01:40:29;;;;;;;0.68;0.57;;;13.90;99.90;;;;;;5073839;28;20464;-59
2021/05/25 01:42:55;;;;;;;2.42;0.73;;;14.00;99.90;;;;;;5075124;28;20040;-59
2021/05/25 01:45:26;;;;;;;1.27;0.75;;;13.90;99.90;;;;;;5075152;28;20040;-59
2021/05/25 01:47:53;;;;;;;0.73;0.50;;;13.90;99.90;;;;;;5075108;28;20024;-59
2021/05/25 01:50:19;;;;;;;1.05;0.50;;;13.80;99.90;;;;;;5074826;28;20414;-59
2021/05/25 01:52:47;;;;;;;0.85;0.60;;;13.80;99.90;;;;;;5093050;28;20032;-59
2021/05/25 01:55:13;;;;;;;0.80;0.52;;;13.80;99.90;;;;;;5094967;28;20060;-59
2021/05/25 01:57:40;;;;;;;2.25;0.77;;;13.70;99.90;;;;;;5092126;28;20028;-60
2021/05/25 02:00:06;;;;;;;1.42;0.70;;;13.70;99.90;;;;;;5095096;28;20115;-59
2021/05/25 02:02:32;;;;;;;1.23;0.70;;;13.70;99.90;;;;;;5094878;28;20063;-59
2021/05/25 02:04:57;;;;;;;0.70;0.50;;;13.60;99.90;;;;;;5094899;28;20055;-59
2021/05/25 02:07:23;;;;;;;1.85;0.63;;;13.50;99.90;;;;;;5094840;28;20028;-58
2021/05/25 02:09:49;;;;;;;1.52;0.70;;;13.50;99.90;;;;;;5081748;28;20030;-59
2021/05/25 02:12:16;;;;;;;2.22;0.60;;;13.50;99.90;;;;;;5073463;28;20089;-59
2021/05/25 02:14:42;;;;;;;2.17;0.52;;;13.40;99.90;;;;;;5074693;28;20032;-59
2021/05/25 02:17:08;;;;;;;1.52;0.57;;;13.30;99.90;;;;;;5074509;28;20074;-59
2021/05/25 02:19:34;;;;;;;1.13;0.63;;;13.30;99.90;;;;;;5074202;28;20036;-59
2021/05/25 02:21:59;;;;;;;0.93;0.60;;;13.30;99.90;;;;;;5074294;28;20048;-59
2021/05/25 02:24:25;;;;;;;2.13;0.88;;;13.30;99.90;;;;;;5074266;28;20103;-59
2021/05/25 02:26:50;;;;;;;1.45;0.70;;;13.20;99.90;;;;;;5073522;28;20028;-60
2021/05/25 02:29:16;;;;;;;1.00;0.60;;;13.20;99.90;;;;;;5074215;28;20119;-59
2021/05/25 02:31:41;;;;;;;2.15;0.90;;;13.10;99.90;;;;;;5074156;28;20033;-59
2021/05/25 02:34:07;;;;;;;1.80;1.02;;;13.10;99.90;;;;;;5074129;28;20039;-59
2021/05/25 02:36:33;;;;;;;1.67;0.60;;;13.00;99.90;;;;;;5073975;28;20028;-59
2021/05/25 02:38:58;;;;;;;1.05;0.70;;;13.00;99.90;;;;;;5074037;28;20027;-60
2021/05/25 02:41:24;;;;;;;1.13;0.55;;;13.00;99.90;;;;;;5072886;28;20028;-60
2021/05/25 02:43:50;;;;;;;0.80;0.60;;;12.90;99.90;;;;;;5073912;28;20036;-59
2021/05/25 02:46:16;;;;;;;1.45;0.60;;;12.90;99.90;;;;;;5073973;28;20055;-57
2021/05/25 02:48:41;;;;;;;0.43;0.40;;;12.80;99.90;;;;;;5073633;28;20033;-59
2021/05/25 02:51:07;;;;;;;1.50;0.60;;;12.80;99.90;;;;;;5077793;28;20030;-59
2021/05/25 02:53:32;;;;;;;2.55;0.65;;;12.70;99.90;;;;;;5093882;28;20024;-59
2021/05/25 02:55:58;;;;;;;0.93;0.63;;;12.70;99.90;;;;;;5092861;28;20545;-59
2021/05/25 02:58:23;;;;;;;1.50;0.80;;;12.70;99.90;;;;;;5093706;28;20035;-59
2021/05/25 03:00:49;;;;;;;5.30;1.50;;;12.60;99.90;;;;;;5094023;28;20458;-59
2021/05/25 03:03:16;;;;;;;2.75;1.30;;;12.60;99.90;;;;;;5093647;28;20029;-59
2021/05/25 03:05:43;;;;;;;1.63;0.90;;;12.50;99.90;;;;;;5093786;28;20099;-59
2021/05/25 03:08:10;;;;;;;0.93;0.60;;;12.60;99.90;;;;;;5093764;28;20031;-59
2021/05/25 03:10:38;;;;;;;0.88;0.60;;;12.50;99.90;;;;;;5073702;28;20110;-59
2021/05/25 03:13:04;;;;;;;3.28;0.90;;;12.50;99.90;;;;;;5073376;28;20029;-59
2021/05/25 03:15:35;;;;;;;1.33;0.80;;;12.50;99.90;;;;;;5073358;28;20028;-59
2021/05/25 03:18:01;;;;;;;1.33;0.85;;;12.50;99.90;;;;;;5073109;28;20032;-60
2021/05/25 03:20:27;;;;;;;1.63;0.65;;;12.50;99.90;;;;;;5071925;28;20025;-59
2021/05/25 03:22:52;;;;;;;0.63;0.60;;;12.50;99.90;;;;;;5073159;28;20103;-59
2021/05/25 03:25:18;;;;;;;0.82;0.70;;;12.50;99.90;;;;;;5073243;28;20024;-59
2021/05/25 03:27:45;;;;;;;1.75;0.75;;;12.50;99.90;;;;;;5072310;28;20058;-59
2021/05/25 03:30:20;;;;;;;1.45;0.82;;;12.50;99.90;;;;;;5073114;28;20029;-59
2021/05/25 03:32:46;;;;;;;0.80;0.80;;;12.50;99.90;;;;;;5073016;28;20025;-59
2021/05/25 03:35:12;;;;;;;1.38;0.73;;;12.50;99.90;;;;;;5072837;28;20040;-59
2021/05/25 03:37:39;;;;;;;2.22;1.08;;;12.40;99.90;;;;;;5072806;28;20499;-59
2021/05/25 03:40:07;;;;;;;2.03;0.80;;;12.40;99.90;;;;;;5072696;28;20032;-59
2021/05/25 03:42:33;;;;;;;0.70;0.70;;;12.50;99.90;;;;;;5071641;28;20061;-59
2021/05/25 03:44:59;;;;;;;1.02;0.73;;;12.50;99.90;;;;;;5072853;28;20491;-59
2021/05/25 03:47:25;;;;;;;1.67;0.80;;;12.50;99.90;;;;;;5072601;28;20483;-59
2021/05/25 03:49:52;;;;;;;2.33;0.95;;;12.50;99.90;;;;;;5072916;28;20032;-60
2021/05/25 03:52:18;;;;;;;1.42;0.68;;;12.50;99.90;;;;;;5087354;28;20099;-59
2021/05/25 03:54:54;;;;;;;1.63;1.00;;;12.50;99.90;;;;;;5092642;28;20094;-60
2021/05/25 03:59:56;;;;;;;3.70;1.38;;;12.60;99.90;;;;;;5092954;28;20036;-59
2021/05/25 04:02:21;;;;;;;5.43;1.65;;;12.60;99.90;;;;;;5092677;28;20111;-59
2021/05/25 04:04:47;;;;;;;3.60;1.73;;;12.60;99.90;;;;;;5092815;28;20467;-58
2021/05/25 04:07:13;;;;;;;7.88;2.38;;;12.60;99.90;;;;;;5092661;28;20034;-59
2021/05/25 04:09:39;;;;;;;8.75;2.85;;;12.60;99.90;;;;;;5081631;28;20036;-59
2021/05/25 04:12:05;;;;;;;5.68;2.20;;;12.60;99.90;;;;;;5071315;28;20071;-60
2021/05/25 04:14:31;;;;;;;4.63;2.00;;;12.60;99.90;;;;;;5072487;28;20384;-59
2021/05/25 04:16:57;;;;;;;4.53;1.75;;;12.70;99.90;;;;;;5072661;28;20023;-59
2021/05/25 04:19:22;;;;;;;3.45;1.23;;;12.70;99.90;;;;;;5072338;28;20108;-60
2021/05/25 04:21:48;;;;;;;1.17;0.93;;;12.70;99.90;;;;;;5072539;28;20037;-59
2021/05/25 04:24:14;;;;;;;1.63;1.48;;;12.80;99.90;;;;;;5072433;28;20028;-60
2021/05/25 04:26:40;;;;;;;3.05;1.70;;;12.80;99.90;;;;;;5070014;28;20416;-59
2021/05/25 04:29:05;;;;;;;2.40;1.15;;;12.90;99.90;;;;;;5070990;28;20028;-59
2021/05/25 04:31:31;;;;;;;3.55;1.60;;;12.90;99.90;;;;;;5072575;28;20067;-60
2021/05/25 04:33:57;;;;;;;1.27;1.13;;;13.00;99.90;;;;;;5076418;28;20518;-60
2021/05/25 04:36:22;;;;;;;1.88;1.33;;;12.90;99.90;;;;;;5067104;28;20024;-59
2021/05/25 04:38:48;;;;;;;2.25;1.02;;;12.90;99.90;;;;;;5075919;28;20426;-59
2021/05/25 04:41:14;;;;;;;1.58;1.20;;;12.90;99.90;;;;;;5074118;28;20012;-59
2021/05/25 04:43:39;;;;;;;2.60;0.98;;;12.90;99.90;;;;;;5076144;28;20025;-57
2021/05/25 04:46:05;;;;;;;2.00;0.90;;;12.90;99.90;;;;;;5074861;28;20100;-59
2021/05/25 04:48:30;;;;;;;1.67;1.02;;;12.90;99.90;;;;;;5074562;28;20124;-60
2021/05/25 04:50:56;;;;;;;2.17;1.00;;;13.00;99.90;;;;;;5079229;28;20022;-58
2021/05/25 04:53:21;;;;;;;0.80;0.80;;;13.00;99.90;;;;;;5094226;28;20030;-59
2021/05/25 04:55:47;;;;;;;1.55;0.93;;;13.10;99.90;;;;;;5094901;28;20497;-58
2021/05/25 04:58:13;;;;;;;2.20;1.00;;;13.20;99.90;;;;;;5095877;28;20442;-59
2021/05/25 05:00:38;;;;;;;1.80;1.20;;;13.30;99.90;;;;;;5095868;28;20301;-59
2021/05/25 05:03:04;;;;;;;4.80;1.20;;;13.30;99.90;;;;;;5081157;28;20100;-56
2021/05/25 05:05:30;;;;;;;1.65;1.20;;;13.30;99.90;;;;;;5075750;28;20095;-59
2021/05/25 05:07:55;;;;;;;1.48;1.20;;;13.40;99.90;;;;;;5075718;28;20163;-59
2021/05/25 05:10:21;;;;;;;2.45;0.98;;;13.40;99.90;;;;;;5058337;28;20064;-59
2021/05/25 05:12:47;;;;;;;2.90;1.13;;;13.50;99.90;;;;;;5055380;28;20037;-56
2021/05/25 05:15:14;;;;;;;2.92;1.17;;;13.60;99.90;;;;;;5055608;28;20487;-59
2021/05/25 05:17:41;;;;;;;1.10;1.00;;;13.80;99.90;;;;;;5057707;28;20024;-59
2021/05/25 05:20:08;;;;;;;2.75;1.00;;;14.00;99.90;;;;;;5075186;28;20082;-59
2021/05/25 05:22:35;;;;;;;2.78;1.02;;;14.20;99.90;;;;;;5075307;28;20031;-57
2021/05/25 05:25:00;;;;;;;1.73;0.98;;;14.40;99.90;;;;;;5078080;28;20070;-58
2021/05/25 05:27:26;;;;;;;0.73;0.73;;;14.70;99.90;;;;;;5094441;28;20047;-56
2021/05/25 05:29:52;;;;;;;0.95;0.70;;;14.80;99.90;;;;;;5093443;28;20573;-56
2021/05/25 05:32:18;;;;;;;4.63;1.13;;;14.80;99.90;;;;;;5074089;28;20438;-58
2021/05/25 05:34:44;;;;;;;2.35;0.90;;;14.80;99.90;;;;;;5074872;28;20025;-58
2021/05/25 05:37:10;;;;;;;3.28;1.45;;;14.70;99.90;;;;;;5075145;28;20028;-59
2021/05/25 05:39:35;;;;;;;1.90;1.02;;;14.60;99.90;;;;;;5073304;28;20383;-59
2021/05/25 05:42:01;;;;;;;2.97;1.48;;;14.50;99.90;;;;;;5073730;28;20531;-58
2021/05/25 05:44:26;;;;;;;2.15;0.80;;;14.40;99.90;;;;;;5073742;28;20047;-59
2021/05/25 05:46:52;;;;;;;2.08;1.20;;;14.30;99.90;;;;;;5074896;28;20023;-57
2021/05/25 05:49:18;;;;;;;0.85;0.77;;;14.20;99.90;;;;;;5074700;28;20600;-59
2021/05/25 05:51:44;;;;;;;4.20;1.65;;;14.20;99.90;;;;;;5084750;28;20030;-56
2021/05/25 05:54:11;;;;;;;2.08;0.88;;;14.10;99.90;;;;;;5095127;28;20028;-59
2021/05/25 05:56:36;;;;;;;2.13;1.05;;;14.00;99.90;;;;;;5093836;28;20194;-58
2021/05/25 05:59:02;;;;;;;2.42;0.90;;;14.00;99.90;;;;;;5094842;28;20033;-58
2021/05/25 06:01:28;;;;;;;7.80;1.38;;;14.00;99.90;;;;;;5095170;28;20032;-59
2021/05/25 06:03:53;;;;;;;2.20;1.40;;;14.10;99.90;;;;;;5094822;28;20355;-58
2021/05/25 06:06:19;;;;;;;9.73;1.20;;;14.20;99.90;;;;;;5094971;28;20028;-59
2021/05/25 06:08:44;;;;;;;3.17;1.50;;;14.20;99.90;;;;;;5091427;28;20250;-59
2021/05/25 06:11:10;;;;;;;6.13;1.60;;;14.20;99.90;;;;;;5073476;28;20364;-56
2021/05/25 06:13:35;;;;;;;2.50;1.00;;;14.20;99.90;;;;;;5074480;28;20025;-58
2021/05/25 06:16:02;;;;;;;4.40;1.20;;;14.20;99.90;;;;;;5074446;28;20031;-57
2021/05/25 06:18:31;;;;;;;6.05;1.00;;;14.20;99.90;;;;;;5074268;28;20104;-59
2021/05/25 06:20:57;;;;;;;1.10;0.93;;;14.20;99.90;;;;;;5074396;28;20020;-58
2021/05/25 06:23:23;;;;;;;7.68;1.38;;;14.20;99.90;;;;;;5074292;28;20028;-58
2021/05/25 06:25:49;;;;;;;2.08;0.98;;;14.20;99.90;;;;;;5073295;28;20025;-59
2021/05/25 06:28:15;;;;;;;0.88;0.80;;;14.20;99.90;;;;;;5074392;28;20020;-59
2021/05/25 06:30:41;;;;;;;2.40;1.30;;;14.10;99.90;;;;;;5070351;28;20024;-59
2021/05/25 06:33:07;;;;;;;2.35;1.17;;;14.10;99.90;;;;;;5074276;28;20052;-56
2021/05/25 06:35:34;;;;;;;2.33;1.15;;;14.00;99.90;;;;;;5073823;28;20491;-59
2021/05/25 06:38:00;;;;;;;4.28;1.10;;;14.00;99.90;;;;;;5074029;28;20051;-58
2021/05/25 06:40:25;;;;;;;2.92;0.90;;;13.90;99.90;;;;;;5072974;28;20387;-59
2021/05/25 06:42:51;;;;;;;2.28;1.20;;;13.90;99.90;;;;;;5073821;28;20017;-56
2021/05/25 06:45:17;;;;;;;1.38;1.00;;;13.90;99.90;;;;;;5073838;28;20553;-57
2021/05/25 06:47:43;;;;;;;1.52;1.00;;;13.80;99.90;;;;;;5073864;28;20020;-58
2021/05/25 06:50:09;;;;;;;1.83;0.90;;;13.80;99.90;;;;;;5073825;28;20025;-55
2021/05/25 06:52:35;;;;;;;1.13;0.80;;;13.70;99.90;;;;;;5090558;28;20043;-59
2021/05/25 06:55:03;;;;;;;0.85;0.73;;;13.70;99.90;;;;;;5093235;28;20056;-60
2021/05/25 06:57:29;;;;;;;0.98;0.75;;;13.70;99.90;;;;;;5093109;28;20020;-59
2021/05/25 06:59:55;;;;;;;0.85;0.82;;;13.70;99.90;;;;;;5092408;28;20031;-59
2021/05/25 07:02:23;;;;;;;1.27;0.82;;;13.70;99.90;;;;;;5093781;28;20024;-59
2021/05/25 07:04:53;;;;;;;3.22;1.08;;;13.70;99.90;;;;;;5092137;28;20438;-58
2021/05/25 07:07:20;;;;;;;0.52;0.52;;;13.80;99.90;;;;;;5093676;28;20506;-59
2021/05/25 07:09:45;;;;;;;1.55;0.90;;;13.90;99.90;;;;;;5081628;28;20028;-58
2021/05/25 07:12:12;;;;;;;0.60;0.60;;;14.10;99.90;;;;;;5072515;28;20078;-58
2021/05/25 07:14:38;;;;;;;3.67;0.70;;;14.10;99.60;;;;;;5073360;28;20052;-59
2021/05/25 07:17:04;;;;;;;2.20;0.70;;;14.20;98.90;;;;;;5073200;28;20034;-59
2021/05/25 07:19:29;;;;;;;0.73;0.73;;;14.20;97.00;;;;;;5073083;28;20100;-58
2021/05/25 07:21:55;;;;;;;2.47;0.80;;;14.30;96.10;;;;;;5072879;28;20508;-59
2021/05/25 07:24:20;;;;;;;1.27;0.60;;;14.30;95.40;;;;;;5073155;28;20028;-59
2021/05/25 07:26:46;;;;;;;0.73;0.65;;;14.40;95.00;;;;;;5070883;28;20021;-55
2021/05/25 07:29:12;;;;;;;0.73;0.40;;;14.50;94.40;;;;;;5072941;28;20567;-58
2021/05/25 07:31:37;;;;;;;0.57;0.50;;;14.60;94.00;;;;;;5072971;28;20035;-58
2021/05/25 07:34:03;;;;;;;2.30;0.65;;;14.70;93.10;;;;;;5072942;28;20535;-57
2021/05/25 07:36:29;;;;;;;1.48;0.80;;;14.70;92.60;;;;;;5072783;28;20025;-58
2021/05/25 07:38:55;;;;;;;0.95;0.57;;;14.70;91.70;;;;;;5070923;28;20036;-58
2021/05/25 07:41:20;;;;;;;1.10;0.50;;;14.60;91.80;;;;;;5071884;28;20032;-59
2021/05/25 07:43:46;;;;;;;0.70;0.63;;;14.50;91.50;;;;;;5072814;28;20028;-59
2021/05/25 07:46:12;;;;;;;1.38;0.55;;;14.60;91.70;;;;;;5071385;28;20032;-59
2021/05/25 07:48:38;;;;;;;2.25;0.60;;;14.60;91.40;;;;;;5072911;28;20029;-58
2021/05/25 07:51:04;;;;;;;0.65;0.60;;;14.60;90.90;;;;;;5076709;28;20352;-59
2021/05/25 07:53:29;;;;;;;1.38;0.47;;;14.70;90.60;;;;;;5092976;28;20035;-58
2021/05/25 07:55:55;;;;;;;1.35;0.60;;;14.80;90.50;;;;;;5091699;28;20115;-59
2021/05/25 07:58:21;;;;;;;2.10;0.70;;;14.80;90.00;;;;;;5093029;28;20031;-58
2021/05/25 08:00:46;;;;;;;1.17;0.70;;;15.00;89.10;;;;;;5092681;28;20035;-58
2021/05/25 08:03:13;;;;;;;4.90;1.00;;;15.20;88.60;;;;;;5087423;28;20028;-53
2021/05/25 08:05:38;;;;;;;2.92;0.60;;;15.30;87.40;;;;;;5072495;28;20051;-56
2021/05/25 08:08:07;;;;;;;1.00;0.45;;;15.40;84.10;;;;;;5071815;28;20475;-58
2021/05/25 08:10:33;;;;;;;2.00;0.73;;;15.40;84.10;;;;;;5071583;28;20885;-55
2021/05/25 08:12:59;;;;;;;0.40;0.40;;;15.40;83.50;;;;;;5072450;28;20207;-57
2021/05/25 08:15:26;;;;;;;0.88;0.45;;;15.50;83.40;;;;;;5072470;28;20036;-59
2021/05/25 08:20:19;;;;;;;0.95;0.30;;;15.80;81.40;;;;;;5072056;28;20089;-58
2021/05/25 08:22:50;;;;;;;1.70;0.57;;;15.90;80.50;;;;;;5071143;28;20021;-59
2021/05/25 08:25:19;;;;;;;2.25;0.45;;;16.10;78.70;;;;;;5071471;28;20493;-54
2021/05/25 08:27:46;;;;;;;3.53;0.43;;;16.30;77.70;;;;;;5070856;28;20029;-56
2021/05/25 08:30:13;;;;;;;4.72;0.65;;;16.50;77.70;;;;;;5072205;28;20063;-58
2021/05/25 08:32:39;;;;;;;2.72;0.60;;;16.50;76.70;;;;;;5072243;28;20527;-57
2021/05/25 08:35:06;;;;;;;2.05;0.40;;;16.50;75.70;;;;;;5072028;28;20071;-58
2021/05/25 08:37:33;;;;;;;1.10;0.40;;;16.40;75.50;;;;;;5072301;28;20032;-58
2021/05/25 08:39:59;;;;;;;2.70;0.45;;;16.30;75.50;;;;;;5072060;28;20064;-59
2021/05/25 08:42:25;;;;;;;2.20;0.50;;;16.30;74.90;;;;;;5069321;28;20060;-58
2021/05/25 08:44:50;;;;;;;2.13;0.60;;;16.30;75.50;;;;;;5072111;28;20052;-59
2021/05/25 08:47:16;;;;;;;1.73;0.50;;;16.30;75.30;;;;;;5072206;28;20028;-57
2021/05/25 08:49:45;;;;;;;1.05;0.50;;;16.30;75.00;;;;;;5071956;28;20404;-56
2021/05/25 08:52:11;;;;;;;1.00;0.50;;;16.20;74.40;;;;;;5085726;28;20038;-57
2021/05/25 08:54:40;;;;;;;0.95;0.55;;;16.10;74.20;;;;;;5092176;28;20095;-59
2021/05/25 08:57:06;;;;;;;0.65;0.52;;;16.00;73.70;;;;;;5091246;28;20027;-58
2021/05/25 08:59:31;;;;;;;0.82;0.50;;;16.00;73.40;;;;;;5092266;28;20028;-57
2021/05/25 09:01:57;;;;;;;1.05;0.50;;;16.20;73.10;;;;;;5091980;28;20024;-58
2021/05/25 09:04:22;;;;;;;1.48;0.50;;;16.40;72.70;;;;;;5091904;28;20036;-58
2021/05/25 09:06:49;;;;;;;1.50;0.60;;;16.50;71.40;;;;;;5092057;28;20056;-59
2021/05/25 09:09:19;;;;;;;1.85;0.60;;;16.60;70.90;;;;;;5084722;28;20111;-58
2021/05/25 09:12:04;;;;;;;0.95;0.68;;;16.60;70.40;;;;;;5070952;28;20030;-58
2021/05/25 09:14:32;;;;;;;1.15;0.50;;;16.50;69.70;;;;;;5071902;28;20101;-59
2021/05/25 09:17:22;;;;;;;1.58;0.52;;;16.40;69.60;;;;;;5071698;28;20044;-59
2021/05/25 09:19:49;;;;;;;1.00;0.40;;;16.50;67.20;;;;;;5075375;28;20036;-59
2021/05/25 09:22:39;;;;;;;0.80;0.47;;;16.60;69.30;;;;;;5071575;28;20028;-59
2021/05/25 09:25:13;;;;;;;0.63;0.40;;;16.80;68.60;;;;;;5075338;28;20017;-60
2021/05/25 09:27:43;;;;;;;1.55;0.60;;;16.90;69.20;;;;;;5075353;28;20020;-60
2021/05/25 09:30:23;;;;;;;1.10;0.63;;;16.80;68.70;;;;;;5075319;28;20048;-59
2021/05/25 09:32:48;;;;;;;1.02;0.40;;;16.80;67.30;;;;;;5075239;28;20136;-59
2021/05/25 09:35:15;;;;;;;0.50;0.30;;;16.80;68.50;;;;;;5075116;28;20554;-59
2021/05/25 09:37:44;;;;;;;0.68;0.28;;;17.30;67.70;;;;;;5075077;28;20029;-58
2021/05/25 09:40:10;;;;;;;4.13;0.77;;;18.30;64.90;;;;;;5074180;28;20033;-59
2021/05/25 09:42:36;;;;;;;2.08;0.55;;;18.60;63.90;;;;;;5074702;28;20024;-57
2021/05/25 09:45:12;;;;;;;1.65;0.90;;;20.10;63.10;;;;;;5075153;28;20528;-58
2021/05/25 09:47:41;;;;;;;3.08;0.73;;;21.70;59.10;;;;;;5073848;28;20027;-59
2021/05/25 09:50:10;;;;;;;2.72;1.05;;;22.60;57.40;;;;;;5074724;28;20365;-60
2021/05/25 09:52:59;;;;;;;3.88;0.75;;;23.20;56.50;;;;;;5092104;28;20035;-59
2021/05/25 09:55:24;;;;;;;2.47;0.80;;;22.60;51.60;;;;;;5092812;28;20043;-59
2021/05/25 09:57:54;;;;;;;0.60;0.43;;;21.70;53.70;;;;;;5095075;28;20028;-60
2021/05/25 10:00:24;;;;;;;1.05;0.50;;;21.00;56.00;;;;;;5095089;28;20383;-59
2021/05/25 10:03:15;;;;;;;1.50;0.38;;;20.70;57.50;;;;;;5095025;28;20052;-59
2021/05/25 10:05:44;;;;;;;0.80;0.50;;;20.90;55.00;;;;;;5094843;28;20467;-59
2021/05/25 10:08:13;;;;;;;0.80;0.40;;;20.90;57.60;;;;;;5069527;28;20116;-59
2021/05/25 10:10:39;;;;;;;1.27;0.63;;;20.90;57.00;;;;;;5071880;28;20029;-59
2021/05/25 10:13:05;;;;;;;2.60;0.57;;;20.90;57.10;;;;;;5072548;28;20086;-59
2021/05/25 10:15:31;;;;;;;0.40;0.30;;;20.90;56.20;;;;;;5065614;28;20061;-60
2021/05/25 10:20:32;;;;;;;1.02;0.40;;;20.60;56.50;;;;;;5072687;28;20138;-59
2021/05/25 10:22:58;;;;;;;3.05;0.90;;;20.40;55.90;;;;;;5072610;28;20116;-60
2021/05/25 10:25:25;;;;;;;2.13;0.47;;;20.00;54.50;;;;;;5071367;28;20158;-60
2021/05/25 10:27:51;;;;;;;1.02;0.50;;;19.70;55.20;;;;;;5072726;28;20073;-60
2021/05/25 10:30:26;;;;;;;1.67;0.85;;;19.60;56.10;;;;;;5070550;28;20028;-59
2021/05/25 10:33:12;;;;;;;0.90;0.70;;;19.70;56.20;;;;;;5072478;28;20029;-59
2021/05/25 10:36:03;;;;;;;1.70;0.63;;;19.70;55.10;;;;;;5072409;28;20510;-59
2021/05/25 10:38:33;;;;;;;5.75;0.70;;;19.80;55.80;;;;;;5072597;28;20119;-60
2021/05/25 10:41:02;;;;;;;0.95;0.63;;;19.80;54.60;;;;;;5071828;28;20067;-59
2021/05/25 10:43:43;;;;;;;2.08;0.70;;;19.80;53.20;;;;;;5073881;28;20191;-59
2021/05/25 10:46:22;;;;;;;4.30;0.68;;;19.40;53.20;;;;;;5073905;28;20032;-60
2021/05/25 10:49:04;;;;;;;1.05;0.50;;;19.20;53.40;;;;;;5071701;28;20027;-59
2021/05/25 10:52:04;;;;;;;2.13;0.50;;;19.20;54.30;;;;;;5080375;28;20012;-58
2021/05/25 10:54:42;;;;;;;1.13;0.40;;;19.30;53.90;;;;;;5067605;28;20032;-59
2021/05/25 10:57:37;;;;;;;1.13;0.40;;;19.10;54.00;;;;;;5092922;28;20054;-58
2021/05/25 11:00:11;;;;;;;1.00;0.45;;;19.00;54.00;;;;;;5093907;28;20057;-59
2021/05/25 11:02:58;;;;;;;1.27;0.60;;;19.00;54.30;;;;;;5093750;28;20020;-59
2021/05/25 11:05:26;;;;;;;1.75;0.50;;;19.20;54.90;;;;;;5093732;28;20027;-59
2021/05/25 11:07:55;;;;;;;3.58;0.80;;;19.50;54.90;;;;;;5093664;28;20024;-59
2021/05/25 11:10:27;;;;;;;1.08;0.50;;;19.80;52.20;;;;;;5076067;28;20035;-59
2021/05/25 11:13:21;;;;;;;1.27;0.43;;;19.70;52.00;;;;;;5072211;28;20372;-59
2021/05/25 11:16:18;;;;;;;3.20;0.50;;;19.70;52.50;;;;;;5062009;28;20480;-58
2021/05/25 11:19:21;;;;;;;2.88;0.55;;;19.90;53.10;;;;;;5071808;28;20043;-60
2021/05/25 11:24:43;;;;;;;0.45;0.20;;;19.90;51.70;;;;;;5073196;28;20095;-59
2021/05/25 11:27:11;;;;;;;0.93;0.40;;;19.90;51.30;;;;;;5072075;28;20078;-59
2021/05/25 11:29:55;;;;;;;1.35;0.45;;;19.80;53.80;;;;;;5073196;28;20106;-58
2021/05/25 11:32:23;;;;;;;1.33;0.45;;;19.50;55.30;;;;;;5072713;28;20373;-59
2021/05/25 11:35:00;;;;;;;0.30;0.30;;;19.00;56.10;;;;;;5073090;28;20098;-58
2021/05/25 11:37:27;;;;;;;0.50;0.50;;;18.60;57.50;;;;;;5072598;28;20162;-56
2021/05/25 11:39:54;;;;;;;1.35;0.30;;;18.30;58.70;;;;;;5072661;28;20029;-59
2021/05/25 11:42:28;;;;;;;0.65;0.22;;;18.20;59.10;;;;;;5070948;28;20346;-59
2021/05/25 11:44:54;;;;;;;1.10;0.38;;;18.30;59.80;;;;;;5072727;28;20062;-59
2021/05/25 11:47:20;;;;;;;1.58;0.52;;;18.40;59.60;;;;;;5072787;28;20028;-57
2021/05/25 11:49:46;;;;;;;0.85;0.50;;;18.30;59.50;;;;;;5072839;28;20024;-59
2021/05/25 11:52:25;;;;;;;1.08;0.40;;;18.30;59.60;;;;;;5086245;28;20098;-59
2021/05/25 11:54:56;;;;;;;0.88;0.50;;;18.30;59.60;;;;;;5082072;28;20063;-59
2021/05/25 11:57:43;;;;;;;1.23;0.20;;;18.40;59.50;;;;;;5071236;28;20035;-59
2021/05/25 12:00:23;;;;;;;1.13;0.30;;;18.50;59.30;;;;;;5072148;28;20029;-57
2021/05/25 12:02:50;;;;;;;0.50;0.50;;;18.70;59.10;;;;;;5072502;28;20066;-58
2021/05/25 12:05:21;;;;;;;0.20;0.20;;;18.50;59.10;;;;;;5072259;28;20024;-58
2021/05/25 12:07:55;;;;;;;1.23;0.38;;;18.30;59.40;;;;;;5072257;28;20069;-59
2021/05/25 12:10:24;;;;;;;0.55;0.30;;;18.20;59.90;;;;;;5054966;28;20055;-59
2021/05/25 12:12:51;;;;;;;2.15;0.35;;;18.30;60.10;;;;;;5052395;28;20530;-59
2021/05/25 12:15:22;;;;;;;1.90;0.30;;;18.30;60.00;;;;;;5052370;28;20216;-59
2021/05/25 12:17:52;;;;;;;1.50;0.30;;;18.40;60.10;;;;;;5052432;28;20468;-59
2021/05/25 12:20:21;;;;;;;2.40;0.43;;;18.40;59.80;;;;;;5052094;28;20503;-59
2021/05/25 12:22:52;;;;;;;0.93;0.47;;;18.40;60.10;;;;;;5063978;28;20021;-59
2021/05/25 12:25:28;;;;;;;0.80;0.40;;;18.00;62.80;;;;;;5071393;28;20387;-59
2021/05/25 12:28:03;;;;;;;0.60;0.30;;;17.60;65.80;;;;;;5072302;28;20040;-60
2021/05/25 12:30:31;;;;;;;0.43;0.30;;;17.20;66.70;;;;;;5072335;28;20075;-59
2021/05/25 12:32:56;;;;;;;2.05;0.43;;;17.00;67.70;;;;;;5071988;28;20031;-57
2021/05/25 12:35:25;;;;;;;2.90;0.85;;;16.90;68.20;;;;;;5072243;28;20095;-59
2021/05/25 12:38:06;;;;;;;0.60;0.50;;;16.90;69.70;;;;;;5070804;28;20033;-60
2021/05/25 12:40:33;;;;;;;0.75;0.30;;;16.90;68.70;;;;;;5071049;28;20021;-58
2021/05/25 12:43:13;;;;;;;1.50;0.40;;;17.00;67.80;;;;;;5072170;28;20040;-59
2021/05/25 12:45:40;;;;;;;1.52;0.50;;;17.20;67.00;;;;;;5072003;28;20036;-58
2021/05/25 12:48:05;;;;;;;5.72;1.00;;;17.60;65.40;;;;;;5072286;28;20491;-56
2021/05/25 12:50:37;;;;;;;1.95;0.50;;;18.00;64.10;;;;;;5072139;28;20033;-59
2021/05/25 12:53:52;;;;;;;5.47;0.40;;;18.20;61.60;;;;;;5052921;28;20028;-58
2021/05/25 12:56:20;;;;;;;0.43;0.35;;;18.30;60.00;;;;;;5048640;28;20041;-58
2021/05/25 12:58:48;;;;;;;1.65;0.40;;;18.30;60.80;;;;;;5055857;28;20028;-57
2021/05/25 13:01:26;;;;;;;2.25;0.47;;;18.20;59.00;;;;;;5055947;28;20059;-58
2021/05/25 13:04:17;;;;;;;0.70;0.40;;;18.00;59.50;;;;;;5055820;28;20017;-57
2021/05/25 13:06:57;;;;;;;1.77;0.38;;;18.00;59.40;;;;;;5048808;28;20361;-58